This is the latest recevied weather packets stored in our database for station/object KD5FHA. If no packets are shown the sender has not sent any weather packets the latest 1 day(s).
| Time | Temp. | Humidity | Pressure | Rain* | Wind** | Luminosity | Snow |
|---|---|---|---|---|---|---|---|
| 1777997480 | 26.67° C | 74% | 1006.2 hPa | 0 mm | 3.58 m/s, 197° | 446 W/m² | - |
| 1777997178 | 26.11° C | 74% | 1006.2 hPa | 0 mm | 4.02 m/s, 212° | 664 W/m² | - |
| 1777996875 | 25.56° C | 75% | 1006.4 hPa | 0 mm | 4.47 m/s, 201° | 537 W/m² | - |
| 1777996571 | 25.56° C | 76% | 1006.1 hPa | 0 mm | 4.47 m/s, 206° | 390 W/m² | - |
| 1777996268 | 25.56° C | 76% | 1006.2 hPa | 0 mm | 3.58 m/s, 186° | 401 W/m² | - |
| 1777995964 | 25.56° C | 76% | 1006 hPa | 0 mm | 5.81 m/s, 205° | 470 W/m² | - |
| 1777995660 | 25.56° C | 77% | 1006.3 hPa | 0 mm | 1.34 m/s, 168° | 423 W/m² | - |
| 1777995358 | 25° C | 77% | 1006.3 hPa | 0 mm | 2.68 m/s, 203° | 436 W/m² | - |
| 1777995055 | 25° C | 78% | 1006.4 hPa | 0 mm | 4.02 m/s, 210° | 318 W/m² | - |
| 1777994751 | 25° C | 78% | 1006.4 hPa | 0 mm | 2.24 m/s, 194° | 249 W/m² | - |
| 1777994448 | 25° C | 78% | 1006.4 hPa | 0 mm | 4.92 m/s, 204° | 293 W/m² | - |
| 1777994148 | 25° C | 78% | 1006.2 hPa | 0 mm | 1.79 m/s, 163° | 297 W/m² | - |
| 1777993846 | 25° C | 78% | 1006.2 hPa | 0 mm | 3.58 m/s, 196° | 285 W/m² | - |
| 1777993542 | 25° C | 78% | 1006.3 hPa | 0 mm | 3.58 m/s, 212° | 390 W/m² | - |
| 1777993238 | 24.44° C | 79% | 1006.1 hPa | 0 mm | 4.02 m/s, 200° | 315 W/m² | - |
| 1777992934 | 24.44° C | 80% | 1006.4 hPa | 0 mm | 1.79 m/s, 198° | 295 W/m² | - |
| 1777992633 | 23.89° C | 80% | 1006.5 hPa | 0 mm | 3.58 m/s, 207° | 247 W/m² | - |
| 1777992330 | 23.89° C | 80% | 1006.5 hPa | 0 mm | 1.34 m/s, 207° | 298 W/m² | - |
| 1777992027 | 23.89° C | 80% | 1006.4 hPa | 0 mm | 5.36 m/s, 198° | 243 W/m² | - |
| 1777991725 | 23.89° C | 81% | 1006.4 hPa | 0 mm | 6.26 m/s, 219° | 267 W/m² | - |
| 1777991422 | 23.89° C | 81% | 1006.3 hPa | 0 mm | 4.92 m/s, 200° | 214 W/m² | - |
| 1777991119 | 23.89° C | 81% | 1006.4 hPa | 0 mm | 2.24 m/s, 206° | 193 W/m² | - |
| 1777990816 | 23.89° C | 81% | 1006.4 hPa | 0 mm | 3.13 m/s, 204° | 222 W/m² | - |
| 1777990514 | 23.89° C | 81% | 1006.1 hPa | 0 mm | 3.58 m/s, 199° | 206 W/m² | - |
| 1777990210 | 23.89° C | 82% | 1005.8 hPa | 0 mm | 4.47 m/s, 174° | 212 W/m² | - |
* Rain latest hour (hover to see other rain measurements)
** Current wind speed in m/s (hover to see current wind gust speed)